createdAt,value
2022-08-10T00:02:13.958Z,100889.69
2022-08-10T00:04:40.462Z,100897.31
2022-08-10T00:07:07.391Z,100892.44
2022-08-10T00:09:33.964Z,100898.19
2022-08-10T00:12:19.553Z,100892.75
2022-08-10T00:14:46.389Z,100893.94
2022-08-10T00:17:12.822Z,100893.44
2022-08-10T00:20:02.361Z,100889.69
2022-08-10T00:22:25.806Z,100892.78
2022-08-10T00:24:52.254Z,100892.22
2022-08-10T00:27:51.759Z,100893.41
2022-08-10T00:30:06.569Z,100892.56
2022-08-10T00:32:33.229Z,100901.41
2022-08-10T00:34:59.818Z,100906.00
2022-08-10T00:37:26.368Z,100900.88
2022-08-10T00:39:52.944Z,100898.84
2022-08-10T00:42:19.412Z,100901.88
2022-08-10T00:44:47.865Z,100896.78
2022-08-10T00:47:36.206Z,100896.63
2022-08-10T00:50:01.323Z,100891.00
2022-08-10T00:52:29.975Z,100893.19
2022-08-10T00:54:56.990Z,100892.69
2022-08-10T00:57:24.258Z,100895.88
2022-08-10T00:59:59.482Z,100901.47
2022-08-10T01:02:29.196Z,100903.19
2022-08-10T01:05:00.243Z,100896.56
2022-08-10T01:07:49.268Z,100902.66
2022-08-10T01:10:35.030Z,100904.31
2022-08-10T01:13:07.245Z,100900.41
2022-08-10T01:15:41.081Z,100896.16
2022-08-10T01:18:16.085Z,100894.09
2022-08-10T01:20:52.118Z,100895.28
2022-08-10T01:23:33.419Z,100895.22
2022-08-10T01:26:31.175Z,100893.00
2022-08-10T01:29:23.420Z,100881.94
2022-08-10T01:31:54.263Z,100883.59
2022-08-10T01:34:24.795Z,100884.94
2022-08-10T01:36:54.472Z,100880.34
2022-08-10T01:39:27.380Z,100889.00
2022-08-10T01:42:00.487Z,100887.63
2022-08-10T01:44:34.642Z,100891.66
2022-08-10T01:47:23.579Z,100891.97
2022-08-10T01:49:55.096Z,100891.59
2022-08-10T01:52:22.294Z,100888.38
2022-08-10T01:54:49.820Z,100889.88
2022-08-10T01:57:20.835Z,100897.47
2022-08-10T01:59:58.729Z,100899.63
2022-08-10T02:02:30.338Z,100897.25
2022-08-10T02:04:57.619Z,100905.69
2022-08-10T02:07:27.392Z,100905.22
2022-08-10T02:09:56.899Z,100900.66
2022-08-10T02:12:27.013Z,100902.81
2022-08-10T02:15:00.014Z,100905.88
2022-08-10T02:17:58.581Z,100907.03
2022-08-10T02:20:26.393Z,100904.78
2022-08-10T02:23:01.262Z,100900.69
2022-08-10T02:25:42.451Z,100906.56
2022-08-10T02:28:29.646Z,100897.38
2022-08-10T02:31:22.266Z,100902.09
2022-08-10T02:33:57.322Z,100901.84
2022-08-10T02:36:26.833Z,100898.59
2022-08-10T02:38:59.666Z,100895.69
2022-08-10T02:45:12.480Z,100902.81
2022-08-10T02:45:23.750Z,100908.69
2022-08-10T02:47:52.247Z,100902.75
2022-08-10T02:50:19.133Z,100906.06
2022-08-10T02:53:06.041Z,100904.38
2022-08-10T02:55:41.494Z,100910.94
2022-08-10T02:58:18.169Z,100912.28
2022-08-10T03:00:52.102Z,100907.63
2022-08-10T03:03:25.072Z,100906.34
2022-08-10T03:05:55.923Z,100899.19
2022-08-10T03:08:25.203Z,100903.34
2022-08-10T03:10:52.814Z,100904.50
2022-08-10T03:13:20.592Z,100904.81
2022-08-10T03:15:47.819Z,100905.25
2022-08-10T03:18:14.910Z,100905.56
2022-08-10T03:20:43.008Z,100903.19
2022-08-10T03:23:11.908Z,100899.78
2022-08-10T03:25:38.503Z,100904.19
2022-08-10T03:28:05.842Z,100903.66
2022-08-10T03:30:34.355Z,100905.34
2022-08-10T03:33:03.195Z,100902.50
2022-08-10T03:35:29.719Z,100899.47
2022-08-10T03:37:59.523Z,100904.41
2022-08-10T03:40:44.749Z,100901.56
2022-08-10T03:43:21.056Z,100904.09
2022-08-10T03:45:55.701Z,100903.81
2022-08-10T03:48:33.121Z,100912.47
2022-08-10T03:51:11.719Z,100910.88
2022-08-10T03:54:06.009Z,100911.22
2022-08-10T03:56:29.058Z,100926.84
2022-08-10T03:58:58.049Z,100918.59
2022-08-10T04:02:41.682Z,100913.75
2022-08-10T04:04:14.616Z,100914.28
2022-08-10T04:06:43.082Z,100914.84
2022-08-10T04:09:09.633Z,100926.88
2022-08-10T04:11:37.018Z,100932.16
2022-08-10T04:14:07.634Z,100929.97
2022-08-10T04:16:54.055Z,100940.81
2022-08-10T04:19:20.724Z,100941.34
2022-08-10T04:21:57.209Z,100940.91
2022-08-10T04:24:29.944Z,100940.41
2022-08-10T04:26:58.443Z,100937.78
2022-08-10T04:29:24.943Z,100936.75
2022-08-10T04:31:52.680Z,100943.72
2022-08-10T04:34:20.596Z,100945.59
2022-08-10T04:36:49.861Z,100941.41
2022-08-10T04:39:16.368Z,100948.72
2022-08-10T04:41:46.247Z,100939.28
2022-08-10T04:44:14.362Z,100940.03
2022-08-10T04:46:56.437Z,100944.38
2022-08-10T04:49:53.844Z,100946.19
2022-08-10T04:52:12.027Z,100945.03
2022-08-10T04:54:38.494Z,100943.69
2022-08-10T04:57:06.015Z,100951.69
2022-08-10T04:59:32.445Z,100945.09
2022-08-10T05:02:28.498Z,100946.94
2022-08-10T05:04:45.408Z,100954.38
2022-08-10T05:07:15.915Z,100964.06
2022-08-10T05:10:05.041Z,100951.69
2022-08-10T05:12:31.532Z,100959.41
2022-08-10T05:14:58.005Z,100964.09
2022-08-10T05:17:24.733Z,100960.84
2022-08-10T05:20:03.568Z,100956.03
2022-08-10T05:22:38.084Z,100950.75
2022-08-10T05:25:06.524Z,100952.84
2022-08-10T05:27:33.970Z,100952.19
2022-08-10T05:30:02.318Z,100955.72
2022-08-10T05:32:31.316Z,100949.25
2022-08-10T05:34:58.103Z,100955.88
2022-08-10T05:38:11.657Z,100956.06
2022-08-10T05:40:12.282Z,100961.03
2022-08-10T05:42:40.516Z,100954.47
2022-08-10T05:45:10.258Z,100952.75
2022-08-10T05:48:56.086Z,100956.00
2022-08-10T05:50:28.318Z,100959.59
2022-08-10T05:52:55.025Z,100948.28
2022-08-10T05:55:22.872Z,100954.25
2022-08-10T05:57:49.830Z,100957.63
2022-08-10T06:00:36.997Z,100955.25
2022-08-10T06:03:08.251Z,100946.56
2022-08-10T06:05:37.180Z,100949.13
2022-08-10T06:08:03.584Z,100948.38
2022-08-10T06:10:33.017Z,100955.53
2022-08-10T06:13:30.832Z,100955.84
2022-08-10T06:16:05.982Z,100955.94
2022-08-10T06:18:32.879Z,100947.50
2022-08-10T06:21:00.622Z,100946.78
2022-08-10T06:23:29.554Z,100948.78
2022-08-10T06:26:10.502Z,100942.72
2022-08-10T06:28:43.003Z,100939.47
2022-08-10T06:31:46.579Z,100937.50
2022-08-10T06:34:16.603Z,100938.13
2022-08-10T06:36:44.658Z,100933.22
2022-08-10T06:39:32.239Z,100934.25
2022-08-10T06:42:16.352Z,100942.13
2022-08-10T06:45:03.786Z,100945.16
2022-08-10T06:47:43.756Z,100942.44
2022-08-10T06:50:56.246Z,100950.56
2022-08-10T06:53:53.727Z,100950.31
2022-08-10T06:56:36.058Z,100948.78
2022-08-10T06:59:13.331Z,100949.56
2022-08-10T07:01:51.747Z,100939.72
2022-08-10T07:04:32.535Z,100936.16
2022-08-10T07:07:03.905Z,100944.00
2022-08-10T07:09:32.576Z,100950.88
2022-08-10T07:12:07.726Z,100946.22
2022-08-10T07:14:41.051Z,100938.06
2022-08-10T07:17:15.675Z,100941.06
2022-08-10T07:19:49.510Z,100944.59
2022-08-10T07:23:00.466Z,100939.75
2022-08-10T07:25:06.939Z,100935.19
2022-08-10T07:27:39.139Z,100938.41
2022-08-10T07:30:21.152Z,100939.88
2022-08-10T07:32:52.170Z,100950.00
2022-08-10T07:35:21.535Z,100944.94
2022-08-10T07:37:49.493Z,100949.78
2022-08-10T07:40:18.396Z,100944.47
2022-08-10T07:42:47.595Z,100944.59
2022-08-10T07:45:14.214Z,100941.00
2022-08-10T07:47:54.229Z,100947.81
2022-08-10T07:50:23.006Z,100946.81
2022-08-10T07:52:50.037Z,100937.28
2022-08-10T07:55:18.579Z,100938.72
2022-08-10T07:57:46.955Z,100930.72
2022-08-10T08:00:14.285Z,100932.88
2022-08-10T08:02:55.321Z,100933.50
2022-08-10T08:05:27.643Z,100932.06
2022-08-10T08:08:14.310Z,100931.97
2022-08-10T08:10:42.296Z,100924.75
2022-08-10T08:13:09.031Z,100931.25
2022-08-10T08:16:18.437Z,100925.25
2022-08-10T08:18:25.590Z,100927.13
2022-08-10T08:20:52.936Z,100928.22
2022-08-10T08:24:06.555Z,100929.63
2022-08-10T08:26:08.658Z,100924.94
2022-08-10T08:28:36.345Z,100923.97
2022-08-10T08:31:04.473Z,100935.22
2022-08-10T08:33:41.177Z,100931.06
2022-08-10T08:36:11.817Z,100927.63
2022-08-10T08:38:38.859Z,100925.78
2022-08-10T08:41:37.480Z,100932.06
2022-08-10T08:44:27.997Z,100935.47
2022-08-10T08:47:18.833Z,100934.44
2022-08-10T08:50:17.418Z,100919.91
2022-08-10T08:52:56.466Z,100925.25
2022-08-10T08:56:02.867Z,100922.88
2022-08-10T08:58:26.450Z,100914.28
2022-08-10T09:01:17.795Z,100921.19
2022-08-10T09:03:59.492Z,100911.69
2022-08-10T09:06:51.081Z,100909.78
2022-08-10T09:09:38.487Z,100912.28
2022-08-10T09:12:34.140Z,100905.88
2022-08-10T09:15:40.611Z,100897.66
2022-08-10T09:18:25.566Z,100907.31
2022-08-10T09:21:06.970Z,100904.41
2022-08-10T09:24:04.609Z,100911.59
2022-08-10T09:26:48.898Z,100904.59
2022-08-10T09:29:21.586Z,100891.69
2022-08-10T09:31:55.536Z,100889.09
2022-08-10T09:36:24.059Z,100890.22
2022-08-10T09:38:02.712Z,100891.28
2022-08-10T09:40:59.413Z,100895.41
2022-08-10T09:43:50.286Z,100889.94
2022-08-10T09:46:34.757Z,100889.28
2022-08-10T09:49:16.117Z,100893.72
2022-08-10T09:52:20.538Z,100888.94
2022-08-10T09:55:08.989Z,100881.38
2022-08-10T09:57:59.035Z,100883.06
2022-08-10T10:00:47.733Z,100886.81
2022-08-10T10:03:27.971Z,100880.81
2022-08-10T10:06:12.189Z,100877.03
2022-08-10T10:08:58.606Z,100876.34
2022-08-10T10:12:12.340Z,100876.16
2022-08-10T10:15:25.213Z,100871.66
2022-08-10T10:18:14.001Z,100872.84
2022-08-10T10:21:11.385Z,100866.59
2022-08-10T10:24:19.696Z,100865.69
2022-08-10T10:26:54.613Z,100860.38
2022-08-10T10:29:57.290Z,100856.50
2022-08-10T10:32:37.278Z,100856.88
2022-08-10T10:35:21.939Z,100860.44
2022-08-10T10:38:02.639Z,100848.69
2022-08-10T10:40:35.578Z,100839.88
2022-08-10T10:43:19.646Z,100845.03
2022-08-10T10:46:08.175Z,100851.50
2022-08-10T10:48:42.874Z,100835.53
2022-08-10T10:51:16.894Z,100844.88
2022-08-10T10:54:09.075Z,100842.75
2022-08-10T10:56:43.757Z,100847.78
2022-08-10T10:59:56.519Z,100842.53
2022-08-10T11:02:28.112Z,100840.41
2022-08-10T11:05:04.533Z,100826.78
2022-08-10T11:07:42.475Z,100836.41
2022-08-10T11:10:32.958Z,100835.28
2022-08-10T11:14:24.597Z,100834.13
2022-08-10T11:16:28.838Z,100829.25
2022-08-10T11:19:17.438Z,100831.41
2022-08-10T11:22:02.804Z,100827.63
2022-08-10T11:24:49.340Z,100825.72
2022-08-10T11:27:53.018Z,100815.47
2022-08-10T11:30:21.568Z,100818.31
2022-08-10T11:32:51.087Z,100807.44
2022-08-10T11:35:30.501Z,100816.94
2022-08-10T11:38:33.059Z,100815.72
2022-08-10T11:42:10.241Z,100814.44
2022-08-10T11:44:19.309Z,100804.53
2022-08-10T11:47:11.296Z,100808.78
2022-08-10T11:49:58.086Z,100805.13
2022-08-10T11:52:39.038Z,100809.41
2022-08-10T11:55:28.513Z,100807.69
2022-08-10T11:58:01.425Z,100800.31
2022-08-10T12:00:32.644Z,100801.06
2022-08-10T12:03:02.684Z,100796.88
2022-08-10T12:05:51.994Z,100798.38
2022-08-10T12:10:07.177Z,100791.97
2022-08-10T12:11:23.770Z,100794.94
2022-08-10T12:14:21.569Z,100805.84
2022-08-10T12:16:51.791Z,100803.25
2022-08-10T12:19:25.544Z,100789.88
2022-08-10T12:22:23.572Z,100791.91
2022-08-10T12:24:54.271Z,100796.06
2022-08-10T12:27:21.157Z,100792.63
2022-08-10T12:29:54.397Z,100785.75
2022-08-10T12:32:29.421Z,100786.88
2022-08-10T12:35:12.766Z,100783.53
2022-08-10T12:38:09.094Z,100779.06
2022-08-10T12:40:46.097Z,100777.66
2022-08-10T12:44:05.775Z,100773.66
2022-08-10T12:46:19.874Z,100771.84
2022-08-10T12:49:19.131Z,100772.19
2022-08-10T12:51:50.395Z,100769.75
2022-08-10T12:54:31.916Z,100759.31
2022-08-10T12:57:17.570Z,100759.78
2022-08-10T12:59:47.634Z,100763.00
2022-08-10T13:02:21.764Z,100761.88
2022-08-10T13:04:50.598Z,100757.00
2022-08-10T13:08:24.829Z,100756.06
2022-08-10T13:10:16.774Z,100756.22
2022-08-10T13:12:45.349Z,100754.22
2022-08-10T13:15:45.169Z,100742.84
2022-08-10T13:18:18.290Z,100745.00
2022-08-10T13:20:51.351Z,100744.41
2022-08-10T13:23:21.466Z,100739.16
2022-08-10T13:25:48.846Z,100738.50
2022-08-10T13:28:35.407Z,100741.28
2022-08-10T13:31:16.845Z,100737.47
2022-08-10T13:34:40.215Z,100739.16
2022-08-10T13:36:43.748Z,100740.69
2022-08-10T13:39:11.615Z,100740.13
2022-08-10T13:41:40.335Z,100740.50
2022-08-10T13:44:09.697Z,100734.44
2022-08-10T13:46:40.392Z,100728.59
2022-08-10T13:49:08.207Z,100730.31
2022-08-10T13:51:53.720Z,100727.56
2022-08-10T13:54:27.327Z,100719.69
2022-08-10T13:56:54.208Z,100716.03
2022-08-10T13:59:25.684Z,100711.09
2022-08-10T14:02:14.689Z,100706.06
2022-08-10T14:04:45.805Z,100703.81
2022-08-10T14:07:13.477Z,100692.47
2022-08-10T14:09:41.328Z,100694.09
2022-08-10T14:12:08.738Z,100689.59
2022-08-10T14:14:35.836Z,100688.66
2022-08-10T14:17:03.126Z,100686.19
2022-08-10T14:19:31.947Z,100687.09
2022-08-10T14:21:59.604Z,100695.97
2022-08-10T14:24:28.223Z,100677.09
2022-08-10T14:27:07.745Z,100678.41
2022-08-10T14:29:55.033Z,100681.56
2022-08-10T14:32:26.210Z,100680.66
2022-08-10T14:36:18.494Z,100687.03
2022-08-10T14:37:50.318Z,100674.66
2022-08-10T14:40:20.240Z,100677.97
2022-08-10T14:42:53.949Z,100676.53
2022-08-10T14:45:34.741Z,100672.63
2022-08-10T14:48:08.618Z,100674.78
2022-08-10T14:50:38.664Z,100680.75
2022-08-10T14:53:26.857Z,100677.19
2022-08-10T14:56:00.969Z,100670.44
2022-08-10T14:58:31.815Z,100666.78
2022-08-10T15:00:58.917Z,100673.84
2022-08-10T15:03:58.641Z,100663.69
2022-08-10T15:06:17.005Z,100669.19
2022-08-10T15:08:46.922Z,100670.38
2022-08-10T15:12:15.347Z,100669.50
2022-08-10T15:14:15.164Z,100663.28
2022-08-10T15:16:49.710Z,100659.81
2022-08-10T15:20:01.142Z,100662.28
2022-08-10T15:22:24.003Z,100658.16
2022-08-10T15:25:05.066Z,100651.84
2022-08-10T15:27:54.552Z,100648.84
2022-08-10T15:30:29.622Z,100650.00
2022-08-10T15:33:21.685Z,100650.84
2022-08-10T15:36:23.859Z,100643.56
2022-08-10T15:38:58.067Z,100641.69
2022-08-10T15:41:57.567Z,100652.19
2022-08-10T15:44:23.504Z,100639.88
2022-08-10T15:46:53.051Z,100637.22
2022-08-10T15:49:29.297Z,100632.50
2022-08-10T15:52:04.933Z,100632.28
2022-08-10T15:54:35.065Z,100631.13
2022-08-10T15:57:13.489Z,100635.19
2022-08-10T15:59:59.512Z,100636.91
2022-08-10T16:02:29.301Z,100627.94
2022-08-10T16:05:11.597Z,100622.31
2022-08-10T16:07:45.939Z,100617.16
2022-08-10T16:10:26.149Z,100618.38
2022-08-10T16:12:59.613Z,100624.16
2022-08-10T16:15:27.961Z,100615.34
2022-08-10T16:18:07.812Z,100609.81
2022-08-10T16:20:54.518Z,100608.75
2022-08-10T16:23:25.906Z,100610.22
2022-08-10T16:26:13.434Z,100603.84
2022-08-10T16:28:52.731Z,100599.91
2022-08-10T16:31:24.070Z,100599.56
2022-08-10T16:33:55.160Z,100603.78
2022-08-10T16:36:30.819Z,100593.63
2022-08-10T16:38:57.709Z,100597.34
2022-08-10T16:42:04.219Z,100600.84
2022-08-10T16:44:16.775Z,100593.91
2022-08-10T16:46:44.946Z,100593.09
2022-08-10T16:49:13.925Z,100601.00
2022-08-10T16:51:40.841Z,100590.31
2022-08-10T16:54:08.505Z,100595.97
2022-08-10T16:56:49.395Z,100588.19
2022-08-10T16:59:21.036Z,100602.13
2022-08-10T17:01:51.463Z,100586.53
2022-08-10T17:04:22.604Z,100590.88
2022-08-10T17:06:56.140Z,100584.94
2022-08-10T17:09:26.391Z,100585.00
2022-08-10T17:11:54.845Z,100582.47
2022-08-10T17:14:27.229Z,100583.81
2022-08-10T17:17:02.925Z,100586.19
2022-08-10T17:19:35.063Z,100589.91
2022-08-10T17:22:04.322Z,100583.50
2022-08-10T17:24:34.603Z,100579.06
2022-08-10T17:28:03.922Z,100582.56
2022-08-10T17:30:03.504Z,100587.47
2022-08-10T17:32:45.038Z,100593.50
2022-08-10T17:35:13.921Z,100589.81
2022-08-10T17:37:52.973Z,100580.72
2022-08-10T17:40:23.293Z,100585.03
2022-08-10T17:42:50.975Z,100583.34
2022-08-10T17:45:47.723Z,100577.19
2022-08-10T17:48:10.161Z,100584.56
2022-08-10T17:50:37.978Z,100585.41
2022-08-10T17:53:15.496Z,100581.31
2022-08-10T17:55:43.387Z,100582.91
2022-08-10T17:58:18.057Z,100582.75
2022-08-10T18:00:54.700Z,100594.78
2022-08-10T18:03:29.839Z,100585.53
2022-08-10T18:06:04.340Z,100588.50
2022-08-10T18:08:41.953Z,100595.84
2022-08-10T18:11:11.686Z,100594.69
2022-08-10T18:13:55.400Z,100602.91
2022-08-10T18:16:30.164Z,100600.91
2022-08-10T18:19:00.724Z,100599.56
2022-08-10T18:21:30.786Z,100609.75
2022-08-10T18:24:16.154Z,100611.19
2022-08-10T18:26:45.999Z,100609.50
2022-08-10T18:29:18.660Z,100620.75
2022-08-10T18:31:47.817Z,100616.47
2022-08-10T18:34:19.028Z,100622.81
2022-08-10T18:36:47.315Z,100618.34
2022-08-10T18:39:15.187Z,100622.72
2022-08-10T18:42:00.597Z,100623.75
2022-08-10T18:44:34.408Z,100627.94
2022-08-10T18:47:04.022Z,100627.06
2022-08-10T18:49:41.546Z,100631.63
2022-08-10T18:52:10.258Z,100628.19
2022-08-10T18:54:44.715Z,100634.72
2022-08-10T18:57:32.611Z,100629.78
2022-08-10T19:00:08.577Z,100634.75
2022-08-10T19:02:54.788Z,100634.47
2022-08-10T19:05:39.440Z,100637.91
2022-08-10T19:08:50.848Z,100638.03
2022-08-10T19:11:53.400Z,100637.50
2022-08-10T19:14:24.237Z,100639.47
2022-08-10T19:17:15.095Z,100639.28
2022-08-10T19:20:08.876Z,100641.47
2022-08-10T19:22:55.850Z,100641.75
2022-08-10T19:26:39.328Z,100640.34
2022-08-10T19:28:41.439Z,100641.22
2022-08-10T19:31:44.125Z,100633.22
2022-08-10T19:34:35.375Z,100638.94
2022-08-10T19:37:32.634Z,100639.75
2022-08-10T19:40:11.815Z,100636.63
2022-08-10T19:42:47.801Z,100635.53
2022-08-10T19:46:00.557Z,100637.88
2022-08-10T19:48:27.041Z,100642.13
2022-08-10T19:51:00.039Z,100641.50
2022-08-10T19:53:28.238Z,100632.44
2022-08-10T19:56:32.706Z,100635.38
2022-08-10T20:00:17.274Z,100637.31
2022-08-10T20:02:22.471Z,100638.16
2022-08-10T20:04:57.535Z,100636.06
2022-08-10T20:07:32.918Z,100641.78
2022-08-10T20:10:23.652Z,100640.09
2022-08-10T20:13:13.003Z,100637.81
2022-08-10T20:15:46.296Z,100639.13
2022-08-10T20:18:24.528Z,100640.19
2022-08-10T20:20:59.174Z,100640.41
2022-08-10T20:23:33.582Z,100631.94
2022-08-10T20:26:20.853Z,100634.91
2022-08-10T20:29:16.115Z,100636.59
2022-08-10T20:31:48.400Z,100641.22
2022-08-10T20:34:30.496Z,100634.50
2022-08-10T20:37:05.252Z,100630.25
2022-08-10T20:39:54.997Z,100631.09
2022-08-10T20:42:27.899Z,100649.19
2022-08-10T20:45:02.976Z,100642.59
2022-08-10T20:47:54.341Z,100643.88
2022-08-10T20:50:37.935Z,100648.91
2022-08-10T20:53:10.351Z,100647.63
2022-08-10T20:55:52.688Z,100642.94
2022-08-10T20:58:52.316Z,100637.88
2022-08-10T21:02:07.213Z,100649.00
2022-08-10T21:05:00.722Z,100648.31
2022-08-10T21:08:01.618Z,100649.56
2022-08-10T21:10:41.883Z,100649.91
2022-08-10T21:13:44.557Z,100648.00
2022-08-10T21:16:41.382Z,100646.47
2022-08-10T21:19:37.136Z,100653.56
2022-08-10T21:22:15.706Z,100655.19
2022-08-10T21:25:26.099Z,100653.22
2022-08-10T21:27:59.400Z,100655.69
2022-08-10T21:30:46.912Z,100665.34
2022-08-10T21:33:37.026Z,100656.47
2022-08-10T21:36:14.768Z,100672.19
2022-08-10T21:39:02.528Z,100656.59
2022-08-10T21:42:14.741Z,100663.09
2022-08-10T21:45:16.632Z,100661.78
2022-08-10T21:48:19.009Z,100659.69
2022-08-10T21:51:14.906Z,100659.03
2022-08-10T21:54:16.475Z,100660.41
2022-08-10T21:57:08.712Z,100666.84
2022-08-10T22:00:00.962Z,100666.41
2022-08-10T22:02:50.915Z,100674.31
2022-08-10T22:05:43.195Z,100672.16
2022-08-10T22:08:29.302Z,100679.25
2022-08-10T22:11:16.486Z,100673.25
2022-08-10T22:14:06.279Z,100680.31
2022-08-10T22:17:05.495Z,100679.19
2022-08-10T22:19:56.770Z,100673.03
2022-08-10T22:23:01.201Z,100672.94
2022-08-10T22:26:15.943Z,100672.59
2022-08-10T22:29:10.852Z,100671.84
2022-08-10T22:32:20.617Z,100669.88
2022-08-10T22:35:42.877Z,100666.25
2022-08-10T22:38:59.159Z,100670.00
2022-08-10T22:42:24.201Z,100675.16
2022-08-10T22:45:10.387Z,100667.72
2022-08-10T22:47:55.694Z,100665.00
2022-08-10T22:50:26.751Z,100662.94
2022-08-10T22:53:04.662Z,100664.72
2022-08-10T22:55:55.950Z,100671.19
2022-08-10T22:58:28.628Z,100673.63
2022-08-10T23:01:06.973Z,100672.72
2022-08-10T23:03:51.775Z,100676.38
2022-08-10T23:06:20.156Z,100674.59
2022-08-10T23:09:01.658Z,100683.88
2022-08-10T23:11:36.622Z,100685.28
2022-08-10T23:14:09.935Z,100683.31
2022-08-10T23:17:22.422Z,100680.31
2022-08-10T23:20:13.339Z,100683.31
2022-08-10T23:22:48.138Z,100676.44
2022-08-10T23:25:19.237Z,100677.78
2022-08-10T23:27:49.289Z,100671.38
2022-08-10T23:30:19.219Z,100677.19
2022-08-10T23:32:49.202Z,100671.44
2022-08-10T23:36:30.052Z,100675.13
2022-08-10T23:38:06.127Z,100671.44
2022-08-10T23:40:34.590Z,100680.34
2022-08-10T23:43:02.127Z,100676.50
2022-08-10T23:45:31.521Z,100670.38
2022-08-10T23:48:20.443Z,100674.69
2022-08-10T23:50:58.386Z,100672.84
2022-08-10T23:53:41.380Z,100677.81
2022-08-10T23:56:11.685Z,100671.44
2022-08-10T23:58:42.297Z,100667.53
